Terminal Aerodrome Forecast
Issued by NWS North Platte, NE

Home | Current Version | Previous Version | Text Only | Print | Product List | Glossary On
Versions: 1 2 3 4 5 6 7 8 9 10 11 12 13 14 15 16
000
FTUS43 KLBF 252320
TAFLBF
TAF
KLBF 252320Z 2600/2624 34008G15KT P6SM VCSH SCT040 SCT070 BKN100
      TEMPO 2600/2602 30025G35KT 5SM -TSRA SQ BKN050CB
     FM260200 VRB06KT P6SM SCT100
     FM260700 VRB04KT P6SM SCT250
     FM261500 07010KT P6SM SCT080=

USA.gov is the U.S. government's official web portal to all federal, state and local government web resources and services.